默认 日期 大小 文件数 浏览量 最新下载 xml
2022 mkv磁力链接相关资源由用户搜索指令自动获取,结果来源于网络,本站不存储任何资料,亦不承担任何责任,请于24小时内删除,搜索到2346个磁力,用时15ms。
    ... de Bridge Hollow (2022) [BluRay 720p X264 MKV][AC3 5.1 Castellano ... de Bridge Hollow (2022) [BluRay 720p X264 MKV][AC3 5.1 Castellano ... de Bridge Hollow (2022) [BluRay 720p X264 MKV][AC3 5.1 Castellano ...
创建时间: 2022-10-15 00:01:13 大小:2 GB 文件数量:5 热度:2 最近下载:2025-02-09 08:48:05
    ... .Rings.of.Power.2022.S01E06.PL.m720p.H265.MKV.AAC-5.1 ...
创建时间: 2022-10-15 06:39:23 大小:1.75 GB 文件数量:7 热度:4 最近下载:2025-03-30 04:44:02
    ... .Rings.of.Power.2022.S01E01.PL.m1080p.H265.MKV.AAC-5.1 ... .Rings.of.Power.2022.S01E02.PL.m1080p.H265.MKV.AAC-5.1 ... .Rings.of.Power.2022.S01E03.PL.m1080p.H265.MKV.AAC-5.1 ... .Power.2022.S01E08.FiNAL.PL.m1080p.H265.MKV.AAC-5.1.mkv": 2233163422 ...
创建时间: 2022-10-15 07:37:30 大小:17.84 GB 文件数量:15 热度:3 最近下载:2025-01-11 08:08:01
    ... .Power.2022.S01E08.FiNAL.PL.m720p.H265.MKV.AAC-5.1.mkv": 1719329849 ...
创建时间: 2022-10-15 08:10:48 大小:1.6 GB 文件数量:7 热度:4 最近下载:2025-03-20 15:32:02
    ... , "Los amantes (Amants) (2022) [BluRay 720p X264 MKV][AC3 5.1 Castellano ... , "Los amantes (Amants) (2022) [BluRay 720p X264 MKV][AC3 5.1 Castellano ... , "Los amantes (Amants) (2022) [BluRay 720p X264 MKV][AC3 5.1 Castellano ...
创建时间: 2022-10-15 08:33:43 大小:2.76 GB 文件数量:5 热度:4 最近下载:2025-01-13 18:02:02
    ... Kalangal Ep101 - Cover Your Tracks.mkv": 138371577, "www.TamilBlasters.Life - Kanaa ... Kalangal Ep102 - The Failed Attempt.mkv": 133248810, "www.TamilBlasters.Life - Kanaa ... - In Search of the Past.mkv": 136050724, "www.TamilBlasters.Life - Kanaa ...
创建时间: 2022-10-15 19:56:07 大小:516.25 MB 文件数量:7 热度:2 最近下载:2025-01-19 08:01:45
    ... .2022.1080p.10bit.IMAX.WEBRip.H265.MKV.EAC3-5.1.DUBPL-ENG.mkv ... ": 3078407421, "Doctor.Strange.In.The.Multiverse.Of.Madness.2022.1080p ... .10bit.IMAX.WEBRip.H265.MKV.EAC3-5 ...
创建时间: 2022-10-15 23:13:43 大小:2.87 GB 文件数量:8 热度:4 最近下载:2025-06-22 00:38:01
    {"RARBG.txt": 31, "Rosaline.2022.2160p.DSNP.WEB-DL.DDP5.1.Atmos.DV.HEVC-CM.mkv": 11863703529}
创建时间: 2022-10-16 07:24:43 大小:11.05 GB 文件数量:2 热度:3 最近下载:2025-05-18 10:15:03
    ... .2022.10bit.1080p.iMAX.WEBRip.H265.MKV.EAC3-5.1.DUBPL-ENG.mkv ... ": 2373297127, "THOR - Love.And.Thunder - Miłość i grom.2022 ... .10bit.1080p.iMAX.WEBRip.H265.MKV.EAC3-5.1 ...
创建时间: 2022-10-16 15:58:17 大小:2.21 GB 文件数量:8 热度:2 最近下载:2025-01-10 16:07:06
    ... 演员.2022.BD.1080P.中英双字.mkv": 1969019478, "_____padding_file_0_ ...
创建时间: 2022-10-16 17:55:31 大小:1.83 GB 文件数量:5 热度:6 最近下载:2025-08-04 02:44:02
    ... ": 114, "Rosalina (Rosaline) (2022) [BluRay 720p X264 MKV][AC3 5.1 Castellano ... ": 1038090240, "Rosalina (Rosaline) (2022) [BluRay 720p X264 MKV][AC3 5.1 Castellano ... ": 1038090240, "Rosalina (Rosaline) (2022) [BluRay 720p X264 MKV][AC3 5.1 Castellano ...
创建时间: 2022-10-16 19:58:16 大小:2.73 GB 文件数量:5 热度:2 最近下载:2025-02-07 13:01:47
    ... ": 1038090240, "El entresuelo (2022) [BluRay 720p X264 MKV][AC3 5.1 Castellano ... ": 1038090240, "El entresuelo (2022) [BluRay 720p X264 MKV][AC3 5.1 Castellano ... ": 1038090240, "El entresuelo (2022) [BluRay 720p X264 MKV][AC3 5.1 Castellano ...
创建时间: 2022-10-17 09:54:21 大小:5.11 GB 文件数量:8 热度:2 最近下载:2025-01-11 08:07:01
    ... .txt": 774, "jp-d 2022 poster large.png": 3117091, " ... "Jurassic.World.Dominion.2022.1080p.WEBRip.H265.MKV.AAC-5.1.DUBPL ... -ENG.mkv": 4735790629, "Jurassic.World.Dominion.2022.1080p.WEBRip. ... H265.MKV.AAC-5.1.DUBPL ...
创建时间: 2022-10-17 17:19:26 大小:4.41 GB 文件数量:7 热度:4 最近下载:2025-04-26 18:10:01
    ... , "El arrecife Atrapadas (2022) [BluRay 720p X264 MKV][AC3 5.1 Castellano ... , "El arrecife Atrapadas (2022) [BluRay 720p X264 MKV][AC3 5.1 Castellano ... , "El arrecife Atrapadas (2022) [BluRay 720p X264 MKV][AC3 5.1 Castellano ...
创建时间: 2022-10-17 19:26:20 大小:2.38 GB 文件数量:5 热度:6 最近下载:2025-09-19 17:50:08
    ... ": 114, "Codigo Banshee (2022) [BluRay 720p X264 MKV][AC3 5.1 Castellano ... ": 1038090240, "Codigo Banshee (2022) [BluRay 720p X264 MKV][AC3 5.1 Castellano ... ": 1038090240, "Codigo Banshee (2022) [BluRay 720p X264 MKV][AC3 5.1 Castellano ...
创建时间: 2022-10-17 21:57:51 大小:2.52 GB 文件数量:5 热度:4 最近下载:2025-01-07 21:07:05
    ... Los jovenes amantes (2022) [BluRay 720p X264 MKV][AC3 5.1 Castellano ... Los jovenes amantes (2022) [BluRay 720p X264 MKV][AC3 5.1 Castellano ... Los jovenes amantes (2022) [BluRay 720p X264 MKV][AC3 5.1 ... Los jovenes amantes (2022) [BluRay 720p X264 MKV][AC3 5.1 ...
创建时间: 2022-10-17 22:25:18 大小:5.94 GB 文件数量:9 热度:3 最近下载:2025-01-09 18:49:07
    ... 1038090240, "X (2022) [BluRay 720p X264 MKV][AC3 5.1 Castellano ... 1038090240, "X (2022) [BluRay 720p X264 MKV][AC3 5.1 Castellano ... 1038090240, "X (2022) [BluRay 720p X264 MKV][AC3 5.1 Castellano ... 1038090240, "X (2022) [BluRay 720p X264 MKV][AC3 5.1 Castellano ...
创建时间: 2022-10-18 06:53:16 大小:4.68 GB 文件数量:7 热度:12 最近下载:2025-07-04 21:18:02
    ... ": 69528, "Stars.at.Noon.2022.VOSTFR.1080p.WEBLight.x264.AC3 ... at.Noon.2022.VOSTFR.1080p.WEBLight.x264.AC3-Slay3R.mkv.torrent": ... 228759, "stars.at.-noon.-2022.-vostfr.-1080p ... ": 1203, "stars.at.-noon.-2022.-vostfr.-1080p.-weblight.x-264 ...
创建时间: 2022-10-18 07:33:38 大小:343.81 KB 文件数量:6 热度:11 最近下载:2025-06-25 12:52:02
    ... "V de Venganza (2022) [BluRay 720p X264 MKV][AC3 5.1 Castellano ... "V de Venganza (2022) [BluRay 720p X264 MKV][AC3 5.1 Castellano ... "V de Venganza (2022) [BluRay 720p X264 MKV][AC3 5.1 Castellano ... "V de Venganza (2022) [BluRay 720p X264 MKV][AC3 5.1 Castellano ...
创建时间: 2022-10-18 08:18:25 大小:4.83 GB 文件数量:7 热度:9 最近下载:2025-04-01 23:55:02
    ... .Power.2022.S01E08.FiNAL.PL.m1080p.H265.MKV.AAC-5.1.mkv": 2233163422 ...
创建时间: 2022-10-18 17:52:52 大小:2.08 GB 文件数量:7 热度:4 最近下载:2025-10-14 15:08:02